sensor_id;sensor_type;location;lat;lon;timestamp;P1;durP1;ratioP1;P2;durP2;ratioP2
75386;SDS011;63966;47.914;22.266;2024-02-26T00:02:32;28.92;;;13.57;;
75386;SDS011;63966;47.914;22.266;2024-02-26T00:05:39;28.93;;;13.53;;
75386;SDS011;63966;47.914;22.266;2024-02-26T00:08:43;28.35;;;13.07;;
75386;SDS011;63966;47.914;22.266;2024-02-26T00:11:47;21.63;;;11.88;;
75386;SDS011;63966;47.914;22.266;2024-02-26T00:14:50;25.55;;;12.27;;
75386;SDS011;63966;47.914;22.266;2024-02-26T00:17:55;24.73;;;12.20;;
75386;SDS011;63966;47.914;22.266;2024-02-26T00:20:58;23.13;;;12.17;;
75386;SDS011;63966;47.914;22.266;2024-02-26T00:24:03;22.42;;;11.38;;
75386;SDS011;63966;47.914;22.266;2024-02-26T00:27:06;27.17;;;13.82;;
75386;SDS011;63966;47.914;22.266;2024-02-26T00:30:10;26.67;;;14.35;;
75386;SDS011;63966;47.914;22.266;2024-02-26T00:33:16;28.20;;;15.82;;
75386;SDS011;63966;47.914;22.266;2024-02-26T00:36:20;30.07;;;14.67;;
75386;SDS011;63966;47.914;22.266;2024-02-26T00:39:23;24.17;;;12.57;;
75386;SDS011;63966;47.914;22.266;2024-02-26T00:42:27;22.73;;;12.98;;
75386;SDS011;63966;47.914;22.266;2024-02-26T00:45:30;20.42;;;11.00;;
75386;SDS011;63966;47.914;22.266;2024-02-26T00:48:34;19.95;;;11.15;;
75386;SDS011;63966;47.914;22.266;2024-02-26T00:51:37;21.67;;;11.40;;
75386;SDS011;63966;47.914;22.266;2024-02-26T00:54:41;33.78;;;15.63;;
75386;SDS011;63966;47.914;22.266;2024-02-26T00:57:44;39.58;;;18.42;;
75386;SDS011;63966;47.914;22.266;2024-02-26T01:00:48;45.20;;;18.98;;
75386;SDS011;63966;47.914;22.266;2024-02-26T01:03:51;31.95;;;16.52;;
75386;SDS011;63966;47.914;22.266;2024-02-26T01:06:55;33.43;;;15.77;;
75386;SDS011;63966;47.914;22.266;2024-02-26T01:09:59;29.70;;;13.82;;
75386;SDS011;63966;47.914;22.266;2024-02-26T01:13:02;26.85;;;12.65;;
75386;SDS011;63966;47.914;22.266;2024-02-26T01:16:06;31.70;;;14.77;;
75386;SDS011;63966;47.914;22.266;2024-02-26T01:19:09;29.33;;;14.73;;
75386;SDS011;63966;47.914;22.266;2024-02-26T01:22:13;28.60;;;13.60;;
75386;SDS011;63966;47.914;22.266;2024-02-26T01:25:16;27.67;;;13.57;;
75386;SDS011;63966;47.914;22.266;2024-02-26T01:28:20;26.90;;;14.50;;
75386;SDS011;63966;47.914;22.266;2024-02-26T01:31:23;28.55;;;14.80;;
75386;SDS011;63966;47.914;22.266;2024-02-26T01:34:27;26.70;;;14.10;;
75386;SDS011;63966;47.914;22.266;2024-02-26T01:37:30;29.37;;;13.77;;
75386;SDS011;63966;47.914;22.266;2024-02-26T01:40:34;26.17;;;13.63;;
75386;SDS011;63966;47.914;22.266;2024-02-26T01:43:38;26.10;;;13.40;;
75386;SDS011;63966;47.914;22.266;2024-02-26T01:46:42;24.98;;;12.55;;
75386;SDS011;63966;47.914;22.266;2024-02-26T01:49:45;20.17;;;10.73;;
75386;SDS011;63966;47.914;22.266;2024-02-26T01:52:49;22.07;;;10.63;;
75386;SDS011;63966;47.914;22.266;2024-02-26T01:55:53;17.98;;;10.00;;
75386;SDS011;63966;47.914;22.266;2024-02-26T01:59:00;21.65;;;11.45;;
75386;SDS011;63966;47.914;22.266;2024-02-26T02:02:05;23.10;;;10.40;;
75386;SDS011;63966;47.914;22.266;2024-02-26T02:05:12;19.92;;;10.50;;
75386;SDS011;63966;47.914;22.266;2024-02-26T02:08:20;20.50;;;10.53;;
75386;SDS011;63966;47.914;22.266;2024-02-26T02:11:25;21.27;;;10.27;;
75386;SDS011;63966;47.914;22.266;2024-02-26T02:14:28;20.33;;;10.50;;
75386;SDS011;63966;47.914;22.266;2024-02-26T02:17:32;19.63;;;9.77;;
75386;SDS011;63966;47.914;22.266;2024-02-26T02:20:36;20.98;;;10.70;;
75386;SDS011;63966;47.914;22.266;2024-02-26T02:23:40;20.57;;;11.37;;
75386;SDS011;63966;47.914;22.266;2024-02-26T02:26:48;18.10;;;9.40;;
75386;SDS011;63966;47.914;22.266;2024-02-26T02:29:52;18.58;;;9.68;;
75386;SDS011;63966;47.914;22.266;2024-02-26T02:32:56;17.35;;;8.93;;
75386;SDS011;63966;47.914;22.266;2024-02-26T02:36:03;17.08;;;8.95;;
75386;SDS011;63966;47.914;22.266;2024-02-26T02:39:11;17.43;;;8.83;;
75386;SDS011;63966;47.914;22.266;2024-02-26T02:42:14;15.60;;;8.60;;
75386;SDS011;63966;47.914;22.266;2024-02-26T02:45:18;19.00;;;8.93;;
75386;SDS011;63966;47.914;22.266;2024-02-26T02:48:22;21.13;;;9.93;;
75386;SDS011;63966;47.914;22.266;2024-02-26T02:51:26;16.58;;;9.63;;
75386;SDS011;63966;47.914;22.266;2024-02-26T02:54:29;19.30;;;8.30;;
75386;SDS011;63966;47.914;22.266;2024-02-26T02:57:33;16.83;;;8.35;;
75386;SDS011;63966;47.914;22.266;2024-02-26T03:00:36;19.20;;;8.68;;
75386;SDS011;63966;47.914;22.266;2024-02-26T03:03:39;13.77;;;7.75;;
75386;SDS011;63966;47.914;22.266;2024-02-26T03:06:43;14.50;;;8.35;;
75386;SDS011;63966;47.914;22.266;2024-02-26T03:09:47;18.83;;;8.70;;
75386;SDS011;63966;47.914;22.266;2024-02-26T03:12:50;18.92;;;7.95;;
75386;SDS011;63966;47.914;22.266;2024-02-26T03:15:54;14.90;;;7.93;;
75386;SDS011;63966;47.914;22.266;2024-02-26T03:18:57;15.13;;;7.45;;
75386;SDS011;63966;47.914;22.266;2024-02-26T03:22:01;15.02;;;8.32;;
75386;SDS011;63966;47.914;22.266;2024-02-26T03:25:05;15.73;;;8.47;;
75386;SDS011;63966;47.914;22.266;2024-02-26T03:28:09;19.65;;;7.90;;
75386;SDS011;63966;47.914;22.266;2024-02-26T03:31:13;18.13;;;8.20;;
75386;SDS011;63966;47.914;22.266;2024-02-26T03:34:17;13.52;;;7.80;;
75386;SDS011;63966;47.914;22.266;2024-02-26T03:37:22;14.20;;;7.75;;
75386;SDS011;63966;47.914;22.266;2024-02-26T03:40:25;13.60;;;7.63;;
75386;SDS011;63966;47.914;22.266;2024-02-26T03:43:29;15.77;;;8.02;;
75386;SDS011;63966;47.914;22.266;2024-02-26T03:46:32;16.40;;;8.02;;
75386;SDS011;63966;47.914;22.266;2024-02-26T03:49:36;17.23;;;8.32;;
75386;SDS011;63966;47.914;22.266;2024-02-26T03:52:39;15.50;;;7.93;;
75386;SDS011;63966;47.914;22.266;2024-02-26T03:55:43;14.47;;;7.50;;
75386;SDS011;63966;47.914;22.266;2024-02-26T03:58:46;13.77;;;7.18;;
75386;SDS011;63966;47.914;22.266;2024-02-26T04:01:49;13.60;;;7.40;;
75386;SDS011;63966;47.914;22.266;2024-02-26T04:04:53;13.45;;;7.20;;
75386;SDS011;63966;47.914;22.266;2024-02-26T04:07:57;15.55;;;7.80;;
75386;SDS011;63966;47.914;22.266;2024-02-26T04:11:00;13.83;;;6.57;;
75386;SDS011;63966;47.914;22.266;2024-02-26T04:14:04;17.27;;;7.70;;
75386;SDS011;63966;47.914;22.266;2024-02-26T04:17:10;16.60;;;7.88;;
75386;SDS011;63966;47.914;22.266;2024-02-26T04:20:14;14.18;;;7.05;;
75386;SDS011;63966;47.914;22.266;2024-02-26T04:23:19;15.77;;;8.00;;
75386;SDS011;63966;47.914;22.266;2024-02-26T04:26:22;15.33;;;7.90;;
75386;SDS011;63966;47.914;22.266;2024-02-26T04:29:26;13.73;;;7.45;;
75386;SDS011;63966;47.914;22.266;2024-02-26T04:32:29;16.73;;;7.18;;
75386;SDS011;63966;47.914;22.266;2024-02-26T04:35:33;15.40;;;7.57;;
75386;SDS011;63966;47.914;22.266;2024-02-26T04:38:37;18.05;;;7.65;;
75386;SDS011;63966;47.914;22.266;2024-02-26T04:41:40;13.97;;;6.93;;
75386;SDS011;63966;47.914;22.266;2024-02-26T04:44:44;12.57;;;6.60;;
75386;SDS011;63966;47.914;22.266;2024-02-26T04:47:47;13.98;;;6.78;;
75386;SDS011;63966;47.914;22.266;2024-02-26T04:50:51;12.23;;;6.70;;
75386;SDS011;63966;47.914;22.266;2024-02-26T04:53:55;13.70;;;7.22;;
75386;SDS011;63966;47.914;22.266;2024-02-26T04:56:58;12.93;;;6.67;;
75386;SDS011;63966;47.914;22.266;2024-02-26T05:00:02;11.93;;;6.80;;
75386;SDS011;63966;47.914;22.266;2024-02-26T05:03:07;12.52;;;6.55;;
75386;SDS011;63966;47.914;22.266;2024-02-26T05:06:15;11.88;;;6.05;;
75386;SDS011;63966;47.914;22.266;2024-02-26T05:09:19;14.40;;;6.65;;
75386;SDS011;63966;47.914;22.266;2024-02-26T05:12:22;13.07;;;6.43;;
75386;SDS011;63966;47.914;22.266;2024-02-26T05:15:26;13.23;;;6.78;;
75386;SDS011;63966;47.914;22.266;2024-02-26T05:18:29;11.38;;;6.07;;
75386;SDS011;63966;47.914;22.266;2024-02-26T05:21:33;14.32;;;6.35;;
75386;SDS011;63966;47.914;22.266;2024-02-26T05:24:39;10.70;;;5.68;;
75386;SDS011;63966;47.914;22.266;2024-02-26T05:27:43;9.97;;;5.30;;
75386;SDS011;63966;47.914;22.266;2024-02-26T05:30:47;11.00;;;5.10;;
75386;SDS011;63966;47.914;22.266;2024-02-26T05:33:50;9.45;;;5.28;;
75386;SDS011;63966;47.914;22.266;2024-02-26T05:36:54;10.40;;;5.72;;
75386;SDS011;63966;47.914;22.266;2024-02-26T05:39:57;10.80;;;5.45;;
75386;SDS011;63966;47.914;22.266;2024-02-26T05:43:01;10.63;;;5.60;;
75386;SDS011;63966;47.914;22.266;2024-02-26T05:46:04;10.13;;;5.20;;
75386;SDS011;63966;47.914;22.266;2024-02-26T05:49:08;11.40;;;5.38;;
75386;SDS011;63966;47.914;22.266;2024-02-26T05:52:12;10.90;;;5.90;;
75386;SDS011;63966;47.914;22.266;2024-02-26T05:55:15;9.43;;;5.38;;
75386;SDS011;63966;47.914;22.266;2024-02-26T05:58:18;11.37;;;4.83;;
75386;SDS011;63966;47.914;22.266;2024-02-26T06:01:22;9.27;;;4.47;;
75386;SDS011;63966;47.914;22.266;2024-02-26T06:04:26;8.32;;;4.13;;
75386;SDS011;63966;47.914;22.266;2024-02-26T06:07:30;10.65;;;4.40;;
75386;SDS011;63966;47.914;22.266;2024-02-26T06:10:33;11.60;;;4.85;;
75386;SDS011;63966;47.914;22.266;2024-02-26T06:13:37;9.80;;;4.43;;
75386;SDS011;63966;47.914;22.266;2024-02-26T06:16:40;12.20;;;4.75;;
75386;SDS011;63966;47.914;22.266;2024-02-26T06:19:44;9.50;;;4.90;;
75386;SDS011;63966;47.914;22.266;2024-02-26T06:22:47;10.07;;;4.68;;
75386;SDS011;63966;47.914;22.266;2024-02-26T06:25:51;9.07;;;4.85;;
75386;SDS011;63966;47.914;22.266;2024-02-26T06:28:55;10.10;;;4.40;;
75386;SDS011;63966;47.914;22.266;2024-02-26T06:31:59;8.63;;;4.32;;
75386;SDS011;63966;47.914;22.266;2024-02-26T06:35:02;7.90;;;4.13;;
75386;SDS011;63966;47.914;22.266;2024-02-26T06:38:10;8.57;;;4.43;;
75386;SDS011;63966;47.914;22.266;2024-02-26T06:41:15;10.10;;;4.55;;
75386;SDS011;63966;47.914;22.266;2024-02-26T06:44:19;8.87;;;4.27;;
75386;SDS011;63966;47.914;22.266;2024-02-26T06:47:23;7.85;;;3.55;;
75386;SDS011;63966;47.914;22.266;2024-02-26T06:50:28;8.52;;;4.05;;
75386;SDS011;63966;47.914;22.266;2024-02-26T06:53:31;8.23;;;4.18;;
75386;SDS011;63966;47.914;22.266;2024-02-26T06:56:35;8.70;;;4.43;;
75386;SDS011;63966;47.914;22.266;2024-02-26T06:59:38;9.57;;;4.10;;
75386;SDS011;63966;47.914;22.266;2024-02-26T07:02:43;10.05;;;4.78;;
75386;SDS011;63966;47.914;22.266;2024-02-26T07:05:46;10.25;;;4.20;;
75386;SDS011;63966;47.914;22.266;2024-02-26T07:08:50;9.63;;;3.38;;
75386;SDS011;63966;47.914;22.266;2024-02-26T07:11:54;7.82;;;4.00;;
75386;SDS011;63966;47.914;22.266;2024-02-26T07:15:02;7.97;;;3.97;;
75386;SDS011;63966;47.914;22.266;2024-02-26T07:18:07;8.55;;;4.20;;
75386;SDS011;63966;47.914;22.266;2024-02-26T07:21:11;8.88;;;4.20;;
75386;SDS011;63966;47.914;22.266;2024-02-26T07:24:15;8.30;;;4.32;;
75386;SDS011;63966;47.914;22.266;2024-02-26T07:27:18;9.52;;;4.68;;
75386;SDS011;63966;47.914;22.266;2024-02-26T07:30:24;12.10;;;6.17;;
75386;SDS011;63966;47.914;22.266;2024-02-26T07:33:27;13.38;;;6.13;;
75386;SDS011;63966;47.914;22.266;2024-02-26T07:36:31;38.47;;;16.77;;
75386;SDS011;63966;47.914;22.266;2024-02-26T07:39:35;54.20;;;22.40;;
75386;SDS011;63966;47.914;22.266;2024-02-26T07:42:39;17.83;;;9.02;;
75386;SDS011;63966;47.914;22.266;2024-02-26T07:45:42;11.43;;;6.00;;
75386;SDS011;63966;47.914;22.266;2024-02-26T07:48:46;9.25;;;4.63;;
75386;SDS011;63966;47.914;22.266;2024-02-26T07:51:50;9.30;;;4.45;;
75386;SDS011;63966;47.914;22.266;2024-02-26T07:54:53;10.65;;;4.30;;
75386;SDS011;63966;47.914;22.266;2024-02-26T07:57:57;9.63;;;4.70;;
75386;SDS011;63966;47.914;22.266;2024-02-26T08:01:00;9.30;;;3.87;;
75386;SDS011;63966;47.914;22.266;2024-02-26T08:04:04;9.25;;;4.50;;
75386;SDS011;63966;47.914;22.266;2024-02-26T08:07:08;9.80;;;4.28;;
75386;SDS011;63966;47.914;22.266;2024-02-26T08:10:11;9.85;;;4.25;;
75386;SDS011;63966;47.914;22.266;2024-02-26T08:13:15;10.15;;;4.57;;
75386;SDS011;63966;47.914;22.266;2024-02-26T08:16:18;7.80;;;4.17;;
75386;SDS011;63966;47.914;22.266;2024-02-26T08:19:23;8.65;;;3.45;;
75386;SDS011;63966;47.914;22.266;2024-02-26T08:22:32;7.97;;;3.90;;
75386;SDS011;63966;47.914;22.266;2024-02-26T08:25:37;9.30;;;4.47;;
75386;SDS011;63966;47.914;22.266;2024-02-26T08:28:40;8.80;;;4.22;;
75386;SDS011;63966;47.914;22.266;2024-02-26T08:31:44;7.90;;;4.30;;
75386;SDS011;63966;47.914;22.266;2024-02-26T08:34:47;8.75;;;4.20;;
75386;SDS011;63966;47.914;22.266;2024-02-26T08:37:51;8.75;;;4.28;;
75386;SDS011;63966;47.914;22.266;2024-02-26T08:40:54;6.82;;;3.83;;
75386;SDS011;63966;47.914;22.266;2024-02-26T08:43:58;7.43;;;4.05;;
75386;SDS011;63966;47.914;22.266;2024-02-26T08:47:01;9.17;;;4.50;;
75386;SDS011;63966;47.914;22.266;2024-02-26T08:50:05;8.15;;;4.05;;
75386;SDS011;63966;47.914;22.266;2024-02-26T08:53:09;9.15;;;4.00;;
75386;SDS011;63966;47.914;22.266;2024-02-26T08:56:15;8.18;;;4.30;;
75386;SDS011;63966;47.914;22.266;2024-02-26T08:59:21;8.90;;;4.50;;
75386;SDS011;63966;47.914;22.266;2024-02-26T09:02:25;7.93;;;3.93;;
75386;SDS011;63966;47.914;22.266;2024-02-26T09:05:32;8.25;;;4.18;;
75386;SDS011;63966;47.914;22.266;2024-02-26T09:08:35;9.13;;;4.20;;
75386;SDS011;63966;47.914;22.266;2024-02-26T09:11:39;8.95;;;4.60;;
75386;SDS011;63966;47.914;22.266;2024-02-26T09:14:43;9.10;;;4.53;;
75386;SDS011;63966;47.914;22.266;2024-02-26T09:17:48;7.57;;;4.00;;
75386;SDS011;63966;47.914;22.266;2024-02-26T09:20:52;9.50;;;4.03;;
75386;SDS011;63966;47.914;22.266;2024-02-26T09:23:56;8.82;;;4.38;;
75386;SDS011;63966;47.914;22.266;2024-02-26T09:27:00;10.68;;;3.95;;
75386;SDS011;63966;47.914;22.266;2024-02-26T09:30:03;7.45;;;3.72;;
75386;SDS011;63966;47.914;22.266;2024-02-26T09:33:07;10.63;;;4.60;;
75386;SDS011;63966;47.914;22.266;2024-02-26T09:36:11;7.38;;;3.40;;
75386;SDS011;63966;47.914;22.266;2024-02-26T09:39:14;9.32;;;4.05;;
75386;SDS011;63966;47.914;22.266;2024-02-26T09:42:27;9.10;;;4.40;;
75386;SDS011;63966;47.914;22.266;2024-02-26T09:45:34;9.48;;;4.07;;
75386;SDS011;63966;47.914;22.266;2024-02-26T09:48:42;7.53;;;3.87;;
75386;SDS011;63966;47.914;22.266;2024-02-26T09:51:48;7.63;;;4.20;;
75386;SDS011;63966;47.914;22.266;2024-02-26T09:54:53;9.10;;;3.90;;
75386;SDS011;63966;47.914;22.266;2024-02-26T09:57:57;8.30;;;3.95;;
75386;SDS011;63966;47.914;22.266;2024-02-26T10:01:02;7.85;;;3.70;;
75386;SDS011;63966;47.914;22.266;2024-02-26T10:04:07;8.23;;;4.00;;
75386;SDS011;63966;47.914;22.266;2024-02-26T10:07:13;7.18;;;3.65;;
75386;SDS011;63966;47.914;22.266;2024-02-26T10:10:17;9.15;;;4.35;;
75386;SDS011;63966;47.914;22.266;2024-02-26T10:13:21;8.07;;;4.22;;
75386;SDS011;63966;47.914;22.266;2024-02-26T10:16:25;9.45;;;4.05;;
75386;SDS011;63966;47.914;22.266;2024-02-26T10:19:30;9.27;;;4.13;;
75386;SDS011;63966;47.914;22.266;2024-02-26T10:22:38;7.93;;;4.30;;
75386;SDS011;63966;47.914;22.266;2024-02-26T10:25:52;9.45;;;4.38;;
75386;SDS011;63966;47.914;22.266;2024-02-26T10:28:59;8.73;;;4.10;;
75386;SDS011;63966;47.914;22.266;2024-02-26T10:32:04;10.18;;;4.30;;
75386;SDS011;63966;47.914;22.266;2024-02-26T10:35:08;7.30;;;3.57;;
75386;SDS011;63966;47.914;22.266;2024-02-26T10:38:12;9.23;;;4.47;;
75386;SDS011;63966;47.914;22.266;2024-02-26T10:41:15;7.93;;;3.90;;
75386;SDS011;63966;47.914;22.266;2024-02-26T10:44:19;6.97;;;3.90;;
75386;SDS011;63966;47.914;22.266;2024-02-26T10:47:23;8.65;;;3.75;;
75386;SDS011;63966;47.914;22.266;2024-02-26T10:50:27;9.00;;;3.70;;
75386;SDS011;63966;47.914;22.266;2024-02-26T10:53:30;10.60;;;4.07;;
75386;SDS011;63966;47.914;22.266;2024-02-26T10:56:35;10.50;;;3.85;;
75386;SDS011;63966;47.914;22.266;2024-02-26T10:59:42;7.53;;;3.65;;
75386;SDS011;63966;47.914;22.266;2024-02-26T11:02:46;8.60;;;4.00;;
75386;SDS011;63966;47.914;22.266;2024-02-26T11:05:51;9.20;;;4.10;;
75386;SDS011;63966;47.914;22.266;2024-02-26T11:08:55;10.45;;;3.72;;
75386;SDS011;63966;47.914;22.266;2024-02-26T11:11:59;7.25;;;3.88;;
75386;SDS011;63966;47.914;22.266;2024-02-26T11:15:03;8.82;;;4.10;;
75386;SDS011;63966;47.914;22.266;2024-02-26T11:18:08;7.25;;;3.60;;
75386;SDS011;63966;47.914;22.266;2024-02-26T11:21:11;9.73;;;4.13;;
75386;SDS011;63966;47.914;22.266;2024-02-26T11:24:29;9.98;;;3.80;;
75386;SDS011;63966;47.914;22.266;2024-02-26T11:27:35;10.00;;;3.38;;
75386;SDS011;63966;47.914;22.266;2024-02-26T11:30:47;9.07;;;3.42;;
75386;SDS011;63966;47.914;22.266;2024-02-26T11:33:52;8.85;;;3.70;;
75386;SDS011;63966;47.914;22.266;2024-02-26T11:36:56;7.57;;;3.70;;
75386;SDS011;63966;47.914;22.266;2024-02-26T11:40:00;9.63;;;4.80;;
75386;SDS011;63966;47.914;22.266;2024-02-26T11:43:05;6.75;;;3.67;;
75386;SDS011;63966;47.914;22.266;2024-02-26T11:46:25;7.70;;;4.03;;
75386;SDS011;63966;47.914;22.266;2024-02-26T11:49:33;9.40;;;4.13;;
75386;SDS011;63966;47.914;22.266;2024-02-26T11:52:37;7.10;;;3.60;;
75386;SDS011;63966;47.914;22.266;2024-02-26T11:55:41;7.10;;;3.65;;
75386;SDS011;63966;47.914;22.266;2024-02-26T11:58:45;9.30;;;3.40;;
75386;SDS011;63966;47.914;22.266;2024-02-26T12:01:48;9.82;;;3.75;;
75386;SDS011;63966;47.914;22.266;2024-02-26T12:04:53;7.80;;;3.60;;
75386;SDS011;63966;47.914;22.266;2024-02-26T12:08:01;8.23;;;3.60;;
75386;SDS011;63966;47.914;22.266;2024-02-26T12:11:15;11.50;;;4.05;;
75386;SDS011;63966;47.914;22.266;2024-02-26T12:14:18;7.32;;;3.70;;
75386;SDS011;63966;47.914;22.266;2024-02-26T12:17:27;9.75;;;3.80;;
75386;SDS011;63966;47.914;22.266;2024-02-26T12:20:31;8.20;;;3.70;;
75386;SDS011;63966;47.914;22.266;2024-02-26T12:23:35;8.30;;;3.80;;
75386;SDS011;63966;47.914;22.266;2024-02-26T12:26:39;8.93;;;3.35;;
75386;SDS011;63966;47.914;22.266;2024-02-26T12:29:43;8.38;;;3.70;;
75386;SDS011;63966;47.914;22.266;2024-02-26T12:32:47;7.63;;;3.20;;
75386;SDS011;63966;47.914;22.266;2024-02-26T12:35:53;7.18;;;3.40;;
75386;SDS011;63966;47.914;22.266;2024-02-26T12:38:56;9.10;;;3.37;;
75386;SDS011;63966;47.914;22.266;2024-02-26T12:42:00;7.03;;;3.47;;
75386;SDS011;63966;47.914;22.266;2024-02-26T12:45:09;8.82;;;3.40;;
75386;SDS011;63966;47.914;22.266;2024-02-26T12:48:14;7.60;;;3.25;;
75386;SDS011;63966;47.914;22.266;2024-02-26T12:51:18;7.53;;;3.53;;
75386;SDS011;63966;47.914;22.266;2024-02-26T12:54:21;10.17;;;3.40;;
75386;SDS011;63966;47.914;22.266;2024-02-26T12:57:25;6.63;;;3.05;;
75386;SDS011;63966;47.914;22.266;2024-02-26T13:00:31;8.15;;;3.40;;
75386;SDS011;63966;47.914;22.266;2024-02-26T13:03:38;6.22;;;2.85;;
75386;SDS011;63966;47.914;22.266;2024-02-26T13:06:42;8.82;;;3.33;;
75386;SDS011;63966;47.914;22.266;2024-02-26T13:09:46;6.00;;;3.03;;
75386;SDS011;63966;47.914;22.266;2024-02-26T13:12:51;9.30;;;3.53;;
75386;SDS011;63966;47.914;22.266;2024-02-26T13:16:01;8.43;;;3.75;;
75386;SDS011;63966;47.914;22.266;2024-02-26T13:19:10;6.60;;;3.35;;
75386;SDS011;63966;47.914;22.266;2024-02-26T13:22:13;11.18;;;3.42;;
75386;SDS011;63966;47.914;22.266;2024-02-26T13:25:20;8.57;;;3.20;;
75386;SDS011;63966;47.914;22.266;2024-02-26T13:28:24;6.35;;;3.20;;
75386;SDS011;63966;47.914;22.266;2024-02-26T13:31:30;8.25;;;3.10;;
75386;SDS011;63966;47.914;22.266;2024-02-26T13:34:33;8.20;;;3.30;;
75386;SDS011;63966;47.914;22.266;2024-02-26T13:37:39;7.47;;;3.28;;
75386;SDS011;63966;47.914;22.266;2024-02-26T13:40:43;7.63;;;3.27;;
75386;SDS011;63966;47.914;22.266;2024-02-26T13:43:46;6.82;;;3.17;;
75386;SDS011;63966;47.914;22.266;2024-02-26T13:46:51;6.70;;;2.92;;
75386;SDS011;63966;47.914;22.266;2024-02-26T13:49:54;7.63;;;2.95;;
75386;SDS011;63966;47.914;22.266;2024-02-26T13:52:58;9.73;;;3.85;;
75386;SDS011;63966;47.914;22.266;2024-02-26T13:56:02;7.57;;;2.80;;
75386;SDS011;63966;47.914;22.266;2024-02-26T13:59:07;6.65;;;2.88;;
75386;SDS011;63966;47.914;22.266;2024-02-26T14:02:12;7.53;;;3.20;;
75386;SDS011;63966;47.914;22.266;2024-02-26T14:05:15;8.07;;;3.40;;
75386;SDS011;63966;47.914;22.266;2024-02-26T14:08:21;7.22;;;3.38;;
75386;SDS011;63966;47.914;22.266;2024-02-26T14:11:25;8.83;;;3.03;;
75386;SDS011;63966;47.914;22.266;2024-02-26T14:14:31;7.85;;;3.80;;
75386;SDS011;63966;47.914;22.266;2024-02-26T14:17:37;11.55;;;3.35;;
75386;SDS011;63966;47.914;22.266;2024-02-26T14:20:41;10.35;;;3.10;;
75386;SDS011;63966;47.914;22.266;2024-02-26T14:23:49;10.73;;;3.30;;
75386;SDS011;63966;47.914;22.266;2024-02-26T14:26:53;8.00;;;3.50;;
75386;SDS011;63966;47.914;22.266;2024-02-26T14:29:57;9.75;;;3.22;;
75386;SDS011;63966;47.914;22.266;2024-02-26T14:33:01;8.43;;;2.92;;
75386;SDS011;63966;47.914;22.266;2024-02-26T14:36:06;10.73;;;3.42;;
75386;SDS011;63966;47.914;22.266;2024-02-26T14:39:10;7.03;;;3.35;;
75386;SDS011;63966;47.914;22.266;2024-02-26T14:42:14;9.27;;;2.80;;
75386;SDS011;63966;47.914;22.266;2024-02-26T14:45:20;6.43;;;3.10;;
75386;SDS011;63966;47.914;22.266;2024-02-26T14:48:23;7.88;;;2.80;;
75386;SDS011;63966;47.914;22.266;2024-02-26T14:51:27;10.43;;;2.80;;
75386;SDS011;63966;47.914;22.266;2024-02-26T14:54:31;8.15;;;3.00;;
75386;SDS011;63966;47.914;22.266;2024-02-26T14:57:39;7.20;;;2.67;;
75386;SDS011;63966;47.914;22.266;2024-02-26T15:00:43;6.50;;;2.72;;
75386;SDS011;63966;47.914;22.266;2024-02-26T15:03:47;7.78;;;3.03;;
75386;SDS011;63966;47.914;22.266;2024-02-26T15:06:51;10.35;;;3.15;;
75386;SDS011;63966;47.914;22.266;2024-02-26T15:09:54;6.65;;;2.50;;
75386;SDS011;63966;47.914;22.266;2024-02-26T15:13:01;7.47;;;3.10;;
75386;SDS011;63966;47.914;22.266;2024-02-26T15:16:06;6.93;;;2.67;;
75386;SDS011;63966;47.914;22.266;2024-02-26T15:19:11;9.60;;;2.97;;
75386;SDS011;63966;47.914;22.266;2024-02-26T15:22:19;7.68;;;2.83;;
75386;SDS011;63966;47.914;22.266;2024-02-26T15:25:23;10.13;;;3.20;;
75386;SDS011;63966;47.914;22.266;2024-02-26T15:28:27;5.77;;;3.07;;
75386;SDS011;63966;47.914;22.266;2024-02-26T15:31:31;6.88;;;2.90;;
75386;SDS011;63966;47.914;22.266;2024-02-26T15:34:34;10.23;;;2.85;;
75386;SDS011;63966;47.914;22.266;2024-02-26T15:37:42;9.38;;;2.90;;
75386;SDS011;63966;47.914;22.266;2024-02-26T15:40:45;8.02;;;3.40;;
75386;SDS011;63966;47.914;22.266;2024-02-26T15:43:49;8.00;;;3.37;;
75386;SDS011;63966;47.914;22.266;2024-02-26T15:46:53;7.25;;;2.95;;
75386;SDS011;63966;47.914;22.266;2024-02-26T15:49:57;6.93;;;2.83;;
75386;SDS011;63966;47.914;22.266;2024-02-26T15:53:01;7.15;;;2.78;;
75386;SDS011;63966;47.914;22.266;2024-02-26T15:56:06;6.85;;;2.90;;
75386;SDS011;63966;47.914;22.266;2024-02-26T15:59:10;8.53;;;3.20;;
75386;SDS011;63966;47.914;22.266;2024-02-26T16:02:13;10.38;;;3.38;;
75386;SDS011;63966;47.914;22.266;2024-02-26T16:05:17;8.32;;;3.10;;
75386;SDS011;63966;47.914;22.266;2024-02-26T16:08:21;10.73;;;2.95;;
75386;SDS011;63966;47.914;22.266;2024-02-26T16:11:26;7.88;;;3.20;;
75386;SDS011;63966;47.914;22.266;2024-02-26T16:14:49;6.57;;;3.83;;
75386;SDS011;63966;47.914;22.266;2024-02-26T16:17:54;9.27;;;3.92;;
75386;SDS011;63966;47.914;22.266;2024-02-26T16:21:00;9.18;;;4.00;;
75386;SDS011;63966;47.914;22.266;2024-02-26T16:24:05;8.48;;;4.10;;
75386;SDS011;63966;47.914;22.266;2024-02-26T16:27:08;14.35;;;5.05;;
75386;SDS011;63966;47.914;22.266;2024-02-26T16:30:12;10.87;;;4.53;;
75386;SDS011;63966;47.914;22.266;2024-02-26T16:33:16;10.73;;;4.18;;
75386;SDS011;63966;47.914;22.266;2024-02-26T16:36:19;11.77;;;4.18;;
75386;SDS011;63966;47.914;22.266;2024-02-26T16:39:23;8.50;;;4.00;;
75386;SDS011;63966;47.914;22.266;2024-02-26T16:42:26;11.45;;;4.50;;
75386;SDS011;63966;47.914;22.266;2024-02-26T16:45:30;9.40;;;3.70;;
75386;SDS011;63966;47.914;22.266;2024-02-26T16:48:34;11.05;;;4.57;;
75386;SDS011;63966;47.914;22.266;2024-02-26T16:51:38;9.10;;;5.03;;
75386;SDS011;63966;47.914;22.266;2024-02-26T16:54:41;13.80;;;4.88;;
75386;SDS011;63966;47.914;22.266;2024-02-26T16:57:45;8.70;;;4.78;;
75386;SDS011;63966;47.914;22.266;2024-02-26T17:00:49;10.07;;;4.70;;
75386;SDS011;63966;47.914;22.266;2024-02-26T17:03:52;8.57;;;4.40;;
75386;SDS011;63966;47.914;22.266;2024-02-26T17:06:56;8.43;;;4.60;;
75386;SDS011;63966;47.914;22.266;2024-02-26T17:09:59;14.82;;;5.90;;
75386;SDS011;63966;47.914;22.266;2024-02-26T17:13:03;12.15;;;5.90;;
75386;SDS011;63966;47.914;22.266;2024-02-26T17:16:08;10.93;;;5.97;;
75386;SDS011;63966;47.914;22.266;2024-02-26T17:19:11;16.20;;;6.65;;
75386;SDS011;63966;47.914;22.266;2024-02-26T17:22:15;12.35;;;6.05;;
75386;SDS011;63966;47.914;22.266;2024-02-26T17:25:19;11.30;;;6.00;;
75386;SDS011;63966;47.914;22.266;2024-02-26T17:28:23;14.93;;;7.15;;
75386;SDS011;63966;47.914;22.266;2024-02-26T17:31:26;13.60;;;6.27;;
75386;SDS011;63966;47.914;22.266;2024-02-26T17:34:31;13.02;;;6.25;;
75386;SDS011;63966;47.914;22.266;2024-02-26T17:37:35;15.80;;;7.05;;
75386;SDS011;63966;47.914;22.266;2024-02-26T17:40:39;13.70;;;6.47;;
75386;SDS011;63966;47.914;22.266;2024-02-26T17:43:43;14.93;;;7.68;;
75386;SDS011;63966;47.914;22.266;2024-02-26T17:46:46;14.67;;;6.60;;
75386;SDS011;63966;47.914;22.266;2024-02-26T17:49:49;14.40;;;7.50;;
75386;SDS011;63966;47.914;22.266;2024-02-26T17:52:54;14.77;;;7.78;;
75386;SDS011;63966;47.914;22.266;2024-02-26T17:55:59;16.20;;;7.40;;
75386;SDS011;63966;47.914;22.266;2024-02-26T17:59:08;15.25;;;7.50;;
75386;SDS011;63966;47.914;22.266;2024-02-26T18:02:12;13.27;;;7.53;;
75386;SDS011;63966;47.914;22.266;2024-02-26T18:05:15;12.38;;;6.90;;